Time;durP1;ratioP1;P1;durP2;ratioP2;P2;SDS_P1;SDS_P2;PMS_P1;PMS_P2;Temp;Humidity;BMP_temperature;BMP_pressure;BME280_temperature;BME280_humidity;BME280_pressure;Samples;Min_cycle;Max_cycle;Signal;HPM_P1;HPM_P2
2021/11/08 00:02:22;;;;;;;13.00;6.35;;;;;;;5.16;100.00;99218.84;5134283;28;20027;-69
2021/11/08 00:04:50;;;;;;;14.77;7.35;;;;;;;5.11;100.00;99222.03;5145369;27;20019;-69
2021/11/08 00:07:15;;;;;;;11.23;7.00;;;;;;;5.20;100.00;99215.69;5132088;28;20031;-69
2021/11/08 00:09:43;;;;;;;15.77;6.55;;;;;;;5.25;100.00;99215.22;5135526;28;20031;-69
2021/11/08 00:12:09;;;;;;;10.50;5.97;;;;;;;5.21;100.00;99229.94;5142279;27;20044;-69
2021/11/08 00:14:35;;;;;;;19.02;6.93;;;;;;;5.18;100.00;99223.06;5131204;27;20046;-68
2021/11/08 00:17:25;;;;;;;11.13;6.57;;;;;;;5.19;100.00;99218.56;5133138;28;20044;-68
2021/11/08 00:22:36;;;;;;;16.35;6.38;;;;;;;5.12;100.00;99212.13;5115292;28;20039;-69
2021/11/08 00:25:03;;;;;;;16.60;6.78;;;;;;;5.11;100.00;99210.44;5115707;28;20043;-68
2021/11/08 00:27:29;;;;;;;14.50;6.50;;;;;;;5.11;100.00;99211.31;5120713;28;20027;-69
2021/11/08 00:29:55;;;;;;;16.95;6.43;;;;;;;5.05;100.00;99218.09;5115179;28;20016;-69
2021/11/08 00:32:21;;;;;;;11.48;5.93;;;;;;;4.95;100.00;99205.81;5115723;28;20483;-69
2021/11/08 00:34:46;;;;;;;19.33;6.03;;;;;;;5.12;100.00;99220.19;5120112;28;20024;-68
2021/11/08 00:37:12;;;;;;;14.98;6.20;;;;;;;5.09;100.00;99224.03;5115331;28;20061;-69
2021/11/08 00:39:38;;;;;;;14.05;6.50;;;;;;;5.08;100.00;99225.00;5116449;28;20503;-68
2021/11/08 00:42:04;;;;;;;11.32;5.50;;;;;;;5.01;100.00;99216.75;5117204;28;20020;-69
2021/11/08 00:44:29;;;;;;;12.20;6.10;;;;;;;4.95;100.00;99206.69;5123044;27;20023;-68
2021/11/08 00:46:56;;;;;;;11.95;5.55;;;;;;;4.98;100.00;99217.09;5127955;27;20023;-69
2021/11/08 00:49:23;;;;;;;10.00;6.28;;;;;;;4.94;100.00;99222.91;5140659;27;20476;-68
2021/11/08 00:51:49;;;;;;;13.48;6.60;;;;;;;4.91;100.00;99218.69;5151429;27;20026;-68
2021/11/08 00:54:15;;;;;;;16.25;5.68;;;;;;;4.83;100.00;99224.00;5154527;27;20082;-68
2021/11/08 00:56:45;;;;;;;13.10;6.97;;;;;;;4.87;100.00;99220.00;5146624;27;20059;-69
2021/11/08 00:59:13;;;;;;;11.52;6.47;;;;;;;4.84;100.00;99218.47;5137203;27;20015;-69
2021/11/08 01:01:38;;;;;;;11.48;6.72;;;;;;;4.86;100.00;99215.66;5136372;28;20031;-69
2021/11/08 01:04:06;;;;;;;13.68;6.90;;;;;;;4.83;100.00;99218.66;5138762;27;20023;-68
2021/11/08 01:06:31;;;;;;;15.80;7.63;;;;;;;4.79;100.00;99217.25;5136379;28;20110;-69
2021/11/08 01:08:57;;;;;;;12.07;7.38;;;;;;;4.77;100.00;99220.13;5136657;27;20024;-69
2021/11/08 01:11:22;;;;;;;11.57;6.88;;;;;;;4.65;100.00;99225.88;5137557;27;20031;-70
2021/11/08 01:13:47;;;;;;;16.13;8.18;;;;;;;4.70;100.00;99221.72;5136842;27;20061;-69
2021/11/08 01:16:13;;;;;;;13.00;7.13;;;;;;;4.55;100.00;99229.47;5147138;27;20095;-69
2021/11/08 01:18:39;;;;;;;15.32;7.53;;;;;;;4.43;100.00;99221.81;5135911;27;20027;-69
2021/11/08 01:21:06;;;;;;;15.05;8.18;;;;;;;4.34;100.00;99220.91;5135267;28;20027;-68
2021/11/08 01:23:32;;;;;;;23.63;8.73;;;;;;;4.59;100.00;99222.81;5121325;27;20032;-69
2021/11/08 01:26:09;;;;;;;14.82;8.68;;;;;;;4.46;100.00;99230.41;5114912;27;20036;-69
2021/11/08 01:28:37;;;;;;;16.33;8.05;;;;;;;4.20;100.00;99235.69;5115915;27;20077;-68
2021/11/08 01:31:08;;;;;;;13.77;7.60;;;;;;;4.03;100.00;99239.16;5114482;28;20027;-68
2021/11/08 01:33:35;;;;;;;21.27;8.00;;;;;;;3.92;100.00;99233.03;5114874;27;20015;-69
2021/11/08 01:38:37;;;;;;;22.73;9.77;;;;;;;4.19;100.00;99228.63;5117178;28;20032;-69
2021/11/08 01:41:03;;;;;;;18.40;8.93;;;;;;;4.38;100.00;99233.00;5116430;27;20034;-69
2021/11/08 01:43:28;;;;;;;17.63;9.55;;;;;;;4.44;100.00;99240.44;5132086;27;20111;-69
2021/11/08 01:45:53;;;;;;;26.23;9.77;;;;;;;4.23;100.00;99238.06;5117236;27;20038;-68
2021/11/08 01:48:19;;;;;;;14.30;7.88;;;;;;;4.01;100.00;99239.34;5120320;27;20027;-68
2021/11/08 01:50:45;;;;;;;16.13;7.78;;;;;;;3.89;100.00;99249.41;5135611;27;20026;-68
2021/11/08 01:53:11;;;;;;;14.98;8.20;;;;;;;3.70;100.00;99249.50;5113756;27;20031;-68
2021/11/08 01:55:37;;;;;;;14.25;8.32;;;;;;;3.45;100.00;99233.13;5116944;27;20489;-68
2021/11/08 01:58:02;;;;;;;16.65;9.35;;;;;;;3.68;100.00;99248.81;5114185;28;20035;-68
2021/11/08 02:00:28;;;;;;;21.30;10.75;;;;;;;3.63;100.00;99246.56;5114164;28;20024;-69
2021/11/08 02:02:55;;;;;;;19.83;9.65;;;;;;;3.61;100.00;99251.22;5129580;27;20023;-68
2021/11/08 02:05:20;;;;;;;20.10;8.82;;;;;;;3.45;100.00;99238.47;5115808;27;20050;-69
2021/11/08 02:07:48;;;;;;;16.48;8.85;;;;;;;3.35;100.00;99237.69;5116278;27;20477;-69
2021/11/08 02:10:15;;;;;;;32.13;13.85;;;;;;;3.28;100.00;99245.47;5116326;27;20546;-68
2021/11/08 02:12:41;;;;;;;24.80;12.70;;;;;;;3.22;100.00;99253.19;5117663;27;20023;-69
2021/11/08 02:15:12;;;;;;;19.35;10.50;;;;;;;3.27;100.00;99258.97;5126893;27;20022;-68
2021/11/08 02:17:41;;;;;;;19.67;9.27;;;;;;;3.14;100.00;99267.28;5129584;27;20031;-68
2021/11/08 02:20:14;;;;;;;15.98;9.05;;;;;;;3.11;100.00;99264.91;5115864;27;20028;-69
2021/11/08 02:22:40;;;;;;;18.67;9.52;;;;;;;2.98;100.00;99261.72;5115662;27;20028;-68
2021/11/08 02:25:06;;;;;;;14.50;7.93;;;;;;;2.83;100.00;99258.66;5120235;27;20507;-68
2021/11/08 02:27:31;;;;;;;12.93;7.68;;;;;;;2.78;100.00;99258.25;5113697;28;20473;-68
2021/11/08 02:29:57;;;;;;;22.17;8.20;;;;;;;2.56;100.00;99246.00;5122038;27;20023;-68
2021/11/08 02:32:23;;;;;;;15.20;7.22;;;;;;;2.44;100.00;99233.78;5123569;27;20030;-68
2021/11/08 02:34:48;;;;;;;11.80;7.18;;;;;;;2.54;100.00;99254.19;5113387;28;20024;-68
2021/11/08 02:37:14;;;;;;;18.65;8.98;;;;;;;2.56;100.00;99262.03;5127156;27;21972;-68
2021/11/08 02:39:42;;;;;;;16.23;8.65;;;;;;;2.69;100.00;99259.09;5112676;27;20497;-68
2021/11/08 02:42:07;;;;;;;16.98;8.05;;;;;;;2.75;100.00;99254.03;5133512;27;20015;-69
2021/11/08 02:44:33;;;;;;;15.23;8.18;;;;;;;2.79;100.00;99268.78;5140067;27;20095;-69
2021/11/08 02:46:59;;;;;;;14.07;8.35;;;;;;;2.60;100.00;99244.75;5147618;27;20037;-69
2021/11/08 02:49:30;;;;;;;20.65;9.10;;;;;;;2.60;100.00;99263.44;5152322;27;20062;-69
2021/11/08 02:52:02;;;;;;;17.38;9.15;;;;;;;2.49;100.00;99252.88;5145571;27;20089;-69
2021/11/08 02:54:33;;;;;;;21.75;8.48;;;;;;;2.51;100.00;99270.47;5139278;27;20057;-69
2021/11/08 02:56:59;;;;;;;25.63;9.50;;;;;;;2.60;100.00;99276.81;5136720;27;20030;-68
2021/11/08 02:59:27;;;;;;;22.52;9.35;;;;;;;2.43;100.00;99256.97;5131878;27;20027;-68
2021/11/08 03:01:53;;;;;;;23.42;9.80;;;;;;;2.40;100.00;99268.78;5114497;27;20035;-68
2021/11/08 03:04:24;;;;;;;24.42;9.55;;;;;;;2.34;100.00;99266.69;5123507;27;20424;-69
2021/11/08 03:06:49;;;;;;;18.88;8.95;;;;;;;2.42;100.00;99265.97;5113184;27;20022;-68
2021/11/08 03:09:19;;;;;;;25.90;9.98;;;;;;;2.46;100.00;99270.03;5112178;27;20019;-68
2021/11/08 03:11:46;;;;;;;21.98;10.00;;;;;;;2.26;100.00;99257.69;5112656;27;20019;-68
2021/11/08 03:14:17;;;;;;;18.90;9.45;;;;;;;2.22;100.00;99261.59;5114015;27;20023;-68
2021/11/08 03:16:49;;;;;;;18.98;8.13;;;;;;;2.11;100.00;99271.41;5113814;27;20026;-68
2021/11/08 03:21:47;;;;;;;23.30;9.60;;;;;;;2.18;100.00;99282.41;5117263;28;20026;-68
2021/11/08 03:24:16;;;;;;;18.50;8.52;;;;;;;2.14;100.00;99281.81;5129781;27;20035;-68
2021/11/08 03:29:10;;;;;;;16.75;8.63;;;;;;;1.98;100.00;99276.16;5112414;28;20027;-68
2021/11/08 03:31:36;;;;;;;25.85;9.48;;;;;;;1.98;100.00;99282.34;5113432;28;20034;-68
2021/11/08 03:34:01;;;;;;;17.30;8.73;;;;;;;1.93;100.00;99281.91;5125957;27;20027;-68
2021/11/08 03:36:27;;;;;;;20.80;8.13;;;;;;;1.82;100.00;99263.34;5125889;27;20027;-68
2021/11/08 03:38:52;;;;;;;51.10;14.52;;;;;;;1.96;100.00;99280.78;5112398;28;20404;-68
2021/11/08 03:41:18;;;;;;;47.35;13.13;;;;;;;2.05;100.00;99263.13;5113088;28;20476;-68
2021/11/08 03:43:43;;;;;;;39.05;12.18;;;;;;;2.17;100.00;99284.22;5130905;28;20429;-68
2021/11/08 03:46:08;;;;;;;29.38;10.70;;;;;;;2.23;100.00;99287.31;5112595;27;20504;-68
2021/11/08 03:48:35;;;;;;;18.50;8.73;;;;;;;2.23;100.00;99290.84;5111969;28;20046;-68
2021/11/08 03:51:00;;;;;;;28.25;9.75;;;;;;;2.19;100.00;99302.75;5112372;28;20496;-68
2021/11/08 03:53:26;;;;;;;23.75;8.45;;;;;;;2.09;100.00;99308.06;5113130;27;20032;-68
2021/11/08 03:55:53;;;;;;;34.60;9.20;;;;;;;2.03;100.00;99305.97;5122188;28;20085;-68
2021/11/08 03:58:19;;;;;;;24.23;8.25;;;;;;;1.98;100.00;99305.53;5132362;27;20034;-68
2021/11/08 04:00:45;;;;;;;26.20;8.35;;;;;;;2.05;100.00;99300.50;5124330;27;20150;-68
2021/11/08 04:03:11;;;;;;;19.42;8.15;;;;;;;2.02;100.00;99300.75;5129147;27;20518;-68
2021/11/08 04:05:38;;;;;;;22.27;8.23;;;;;;;2.06;100.00;99307.50;5115769;27;20404;-68
2021/11/08 04:08:08;;;;;;;22.13;7.55;;;;;;;2.10;100.00;99311.59;5111931;28;20035;-68
2021/11/08 04:10:35;;;;;;;23.60;8.10;;;;;;;2.03;100.00;99319.31;5128635;28;20023;-68
2021/11/08 04:13:04;;;;;;;20.80;7.75;;;;;;;1.90;100.00;99311.53;5116438;27;20020;-68
2021/11/08 04:15:36;;;;;;;21.63;8.00;;;;;;;1.77;100.00;99315.44;5115057;28;20034;-68
2021/11/08 04:18:02;;;;;;;20.10;6.63;;;;;;;1.60;100.00;99300.88;5113985;27;20037;-68
2021/11/08 04:20:27;;;;;;;9.95;5.72;;;;;;;1.52;100.00;99323.75;5115786;27;20027;-68
2021/11/08 04:22:54;;;;;;;19.75;6.30;;;;;;;1.24;100.00;99301.28;5118690;27;20085;-68
2021/11/08 04:25:23;;;;;;;12.48;6.10;;;;;;;1.40;100.00;99327.47;5117045;27;20035;-68
2021/11/08 04:27:48;;;;;;;11.80;5.68;;;;;;;1.28;100.00;99320.50;5119133;27;20389;-69
2021/11/08 04:30:15;;;;;;;17.35;6.20;;;;;;;1.22;100.00;99327.22;5119534;27;20034;-68
2021/11/08 04:35:23;;;;;;;13.43;6.78;;;;;;;1.55;100.00;99327.97;5126139;27;20097;-70
2021/11/08 04:37:58;;;;;;;20.55;8.00;;;;;;;1.54;100.00;99311.09;5121124;27;20469;-68
2021/11/08 04:43:49;;;;;;;18.50;8.05;;;;;;;1.71;100.00;99316.81;5123017;27;20114;-73
2021/11/08 04:53:24;;;;;;;35.63;9.60;;;;;;;2.03;100.00;99315.78;5131963;27;20022;-73
2021/11/08 05:29:53;;;;;;;31.30;8.95;;;;;;;2.59;100.00;99339.22;5103546;28;20124;-75
2021/11/08 05:31:27;;;;;;;40.28;10.63;;;;;;;2.68;100.00;99341.06;5109380;27;20982;-70
2021/11/08 05:33:53;;;;;;;20.42;8.77;;;;;;;2.61;100.00;99330.06;5130170;27;20031;-69
2021/11/08 05:36:18;;;;;;;24.27;8.75;;;;;;;2.66;100.00;99332.34;5126774;27;20054;-69
2021/11/08 05:38:43;;;;;;;21.13;8.48;;;;;;;2.76;100.00;99337.69;5125188;27;20439;-69
2021/11/08 05:41:09;;;;;;;16.40;8.38;;;;;;;2.78;100.00;99338.41;5116229;27;20066;-69
2021/11/08 05:43:34;;;;;;;21.00;8.85;;;;;;;2.68;100.00;99330.38;5126215;27;20130;-69
2021/11/08 05:46:00;;;;;;;24.40;8.38;;;;;;;2.80;100.00;99345.28;5133345;27;20448;-69
2021/11/08 05:48:26;;;;;;;25.85;7.93;;;;;;;2.88;100.00;99341.06;5128304;27;20529;-71
2021/11/08 05:50:51;;;;;;;17.83;7.72;;;;;;;2.93;100.00;99338.81;5133166;27;20069;-72
2021/11/08 05:53:16;;;;;;;22.60;8.10;;;;;;;2.96;100.00;99351.88;5137769;27;20057;-72
2021/11/08 05:55:55;;;;;;;27.85;7.85;;;;;;;2.79;100.00;99327.56;5137359;27;20027;-72
2021/11/08 06:49:55;;;;;;;40.05;11.90;;;;;;;3.92;100.00;99393.66;5121027;27;20031;-70
2021/11/08 06:52:21;;;;;;;33.35;11.70;;;;;;;4.03;100.00;99387.25;5112917;27;20077;-71
2021/11/08 06:54:48;;;;;;;40.38;11.25;;;;;;;3.93;100.00;99402.53;5122673;27;20031;-71
2021/11/08 06:57:18;;;;;;;40.63;13.18;;;;;;;3.92;100.00;99406.19;5117643;27;20027;-70
2021/11/08 06:59:50;;;;;;;45.45;13.00;;;;;;;3.99;100.00;99401.94;5119095;27;20500;-70
2021/11/08 07:02:19;;;;;;;39.30;12.48;;;;;;;4.09;100.00;99391.22;5115399;27;20038;-70
2021/11/08 07:04:45;;;;;;;;;;;;;;;4.07;100.00;99409.25;5119334;27;20034;-69
2021/11/08 07:07:11;;;;;;;60.00;14.13;;;;;;;4.00;100.00;99395.59;5122348;27;19912;-70
2021/11/08 07:09:39;;;;;;;41.63;13.23;;;;;;;4.11;100.00;99398.09;5123740;27;20467;-69
2021/11/08 07:12:06;;;;;;;66.85;14.02;;;;;;;4.04;100.00;99405.03;5127518;27;20098;-69
2021/11/08 07:14:32;;;;;;;48.70;14.40;;;;;;;4.25;100.00;99423.56;5111443;28;20027;-69
2021/11/08 07:16:57;;;;;;;46.22;13.80;;;;;;;4.24;100.00;99421.00;5116400;27;20054;-70
2021/11/08 07:19:23;;;;;;;44.50;14.38;;;;;;;4.37;100.00;99419.66;5121223;27;20114;-70
2021/11/08 07:21:48;;;;;;;63.20;14.88;;;;;;;4.45;100.00;99418.94;5112831;28;20024;-69
2021/11/08 07:24:14;;;;;;;43.97;15.00;;;;;;;4.49;100.00;99420.31;5113392;27;20114;-70
2021/11/08 07:26:40;;;;;;;35.05;13.80;;;;;;;4.64;100.00;99436.75;5117700;27;20023;-70
2021/11/08 07:29:06;;;;;;;37.75;15.38;;;;;;;4.95;100.00;99441.75;5114410;27;20023;-69
2021/11/08 07:31:33;;;;;;;39.67;16.15;;;;;;;5.01;100.00;99444.69;5115879;27;20030;-70
2021/11/08 07:33:59;;;;;;;35.55;14.32;;;;;;;5.02;100.00;99446.38;5112394;28;20111;-70
2021/11/08 07:36:25;;;;;;;35.70;13.30;;;;;;;5.01;100.00;99428.59;5113109;28;20110;-69
2021/11/08 07:38:50;;;;;;;32.03;13.35;;;;;;;5.05;100.00;99448.75;5111573;28;20073;-71
2021/11/08 07:41:16;;;;;;;28.67;12.27;;;;;;;5.13;100.00;99452.50;5113931;28;20042;-70
2021/11/08 07:43:41;;;;;;;28.45;12.60;;;;;;;5.18;100.00;99450.22;5112583;27;20103;-71
2021/11/08 07:46:08;;;;;;;33.65;12.48;;;;;;;5.23;100.00;99456.81;5118354;27;20031;-70
2021/11/08 07:48:39;;;;;;;31.15;11.40;;;;;;;5.22;100.00;99454.28;5118805;27;20023;-69
2021/11/08 07:51:04;;;;;;;27.00;11.82;;;;;;;5.32;100.00;99446.16;5114726;27;20061;-71
2021/11/08 07:53:30;;;;;;;31.52;11.30;;;;;;;5.24;100.00;99436.22;5116966;27;20526;-70
2021/11/08 07:55:55;;;;;;;22.75;10.48;;;;;;;5.38;100.00;99453.59;5119790;27;20051;-70
2021/11/08 07:58:20;;;;;;;21.88;10.60;;;;;;;5.50;100.00;99457.72;5127154;27;20023;-70
2021/11/08 08:00:46;;;;;;;20.77;9.95;;;;;;;5.68;100.00;99452.31;5116954;27;20016;-71
2021/11/08 08:03:11;;;;;;;30.20;10.77;;;;;;;5.67;100.00;99443.44;5116208;27;20036;-71
2021/11/08 08:05:37;;;;;;;22.10;10.90;;;;;;;5.87;100.00;99448.63;5119308;27;20099;-72
2021/11/08 08:08:03;;;;;;;25.40;11.23;;;;;;;6.04;100.00;99446.91;5121243;27;20358;-71
2021/11/08 08:10:30;;;;;;;21.48;10.45;;;;;;;6.38;100.00;99443.41;5134839;27;20031;-72
2021/11/08 08:12:56;;;;;;;24.77;9.93;;;;;;;6.82;100.00;99432.50;5136258;27;20030;-74
2021/11/08 08:15:21;;;;;;;23.42;10.18;;;;;;;7.03;100.00;99440.94;5142378;27;20016;-73
2021/11/08 08:17:47;;;;;;;23.92;9.40;;;;;;;7.36;100.00;99425.69;5125428;27;20055;-74
2021/11/08 08:20:18;;;;;;;19.63;9.30;;;;;;;7.49;100.00;99444.00;5133621;27;20420;-77
2021/11/08 08:22:44;;;;;;;26.30;10.13;;;;;;;7.44;98.76;99439.16;5139532;27;20480;-76
2021/11/08 08:25:09;;;;;;;22.20;10.40;;;;;;;6.96;98.26;99419.22;5132176;27;20030;-76
2021/11/08 08:27:35;;;;;;;28.67;10.45;;;;;;;7.29;100.00;99442.66;5125629;28;20023;-74
2021/11/08 08:30:01;;;;;;;22.85;9.93;;;;;;;7.77;97.84;99433.75;5142101;27;20024;-74
2021/11/08 08:32:26;;;;;;;21.33;8.30;;;;;;;8.52;91.09;99433.44;5155825;27;20020;-74
2021/11/08 08:34:52;;;;;;;20.20;8.70;;;;;;;9.49;86.34;99430.34;5154519;27;20043;-75
2021/11/08 08:37:18;;;;;;;19.75;7.82;;;;;;;9.88;82.22;99440.97;5151064;27;20027;-72
2021/11/08 08:39:43;;;;;;;21.20;9.13;;;;;;;9.75;81.62;99440.75;5153448;27;20115;-73
2021/11/08 08:42:09;;;;;;;20.23;9.18;;;;;;;9.71;81.76;99433.19;5148076;27;20641;-70
2021/11/08 08:44:34;;;;;;;16.50;7.65;;;;;;;10.12;81.36;99424.69;5136919;27;20102;-70
2021/11/08 08:46:59;;;;;;;17.38;8.07;;;;;;;10.45;77.95;99441.41;5128222;27;20031;-71
2021/11/08 08:49:25;;;;;;;16.83;7.50;;;;;;;10.72;75.89;99400.16;5117022;27;20020;-71
2021/11/08 08:51:52;;;;;;;18.48;7.80;;;;;;;10.92;75.11;99432.03;5128419;27;20106;-72
2021/11/08 08:54:18;;;;;;;11.68;6.13;;;;;;;10.79;71.25;99408.34;5141363;27;20023;-73
2021/11/08 08:56:43;;;;;;;14.25;5.68;;;;;;;12.94;63.88;99421.50;5134869;27;20034;-73
2021/11/08 08:59:09;;;;;;;14.02;5.57;;;;;;;14.95;59.37;99424.00;5125804;27;20027;-72
2021/11/08 09:01:35;;;;;;;11.40;5.47;;;;;;;16.77;51.72;99410.38;5134430;27;20030;-72
2021/11/08 09:04:00;;;;;;;14.02;5.35;;;;;;;19.15;46.65;99416.75;5124659;27;20027;-68
2021/11/08 09:06:27;;;;;;;13.43;5.15;;;;;;;19.52;44.22;99414.44;5125869;27;20267;-68
2021/11/08 09:08:53;;;;;;;14.43;5.75;;;;;;;16.77;48.56;99423.19;5115170;28;20012;-68
2021/11/08 09:11:19;;;;;;;10.80;5.40;;;;;;;16.40;50.26;99421.28;5116154;27;20042;-68
2021/11/08 09:13:45;;;;;;;12.60;6.30;;;;;;;14.65;54.98;99419.09;5122957;27;20453;-68
2021/11/08 09:16:12;;;;;;;14.43;6.50;;;;;;;15.65;53.06;99429.47;5130509;27;20035;-68
2021/11/08 09:18:49;;;;;;;18.38;6.28;;;;;;;15.62;52.62;99440.00;5116581;27;20031;-71
2021/11/08 09:21:16;;;;;;;16.48;6.60;;;;;;;14.15;55.63;99434.28;5133506;27;20034;-69
2021/11/08 09:23:42;;;;;;;12.65;6.63;;;;;;;14.56;55.91;99434.00;5125689;27;20457;-72
2021/11/08 09:26:09;;;;;;;11.02;6.35;;;;;;;14.36;55.81;99438.63;5145928;27;20022;-69
2021/11/08 09:28:34;;;;;;;19.30;8.63;;;;;;;14.36;56.43;99433.19;5138989;27;20020;-70
2021/11/08 09:31:00;;;;;;;13.68;6.55;;;;;;;15.24;54.55;99428.03;5122036;27;20467;-68
2021/11/08 09:33:26;;;;;;;13.68;6.13;;;;;;;18.21;48.53;99420.47;5114911;27;20715;-69
2021/11/08 09:35:58;;;;;;;17.60;6.15;;;;;;;19.93;42.68;99412.41;5114727;28;20023;-70
2021/11/08 09:38:24;;;;;;;11.35;5.68;;;;;;;21.29;40.42;99415.66;5129492;27;20027;-69
2021/11/08 09:40:50;;;;;;;13.02;5.97;;;;;;;20.25;40.62;99423.66;5119706;27;20053;-68
2021/11/08 09:43:19;;;;;;;16.30;5.82;;;;;;;20.88;40.24;99426.19;5126911;27;20034;-69
2021/11/08 09:45:47;;;;;;;13.45;5.15;;;;;;;20.68;39.75;99418.50;5125694;27;20019;-68
2021/11/08 09:48:12;;;;;;;11.30;5.43;;;;;;;19.10;42.68;99419.38;5119057;27;20175;-68
2021/11/08 09:50:41;;;;;;;13.18;5.22;;;;;;;17.48;46.03;99440.78;5115625;27;20019;-68
2021/11/08 09:53:08;;;;;;;14.68;5.82;;;;;;;16.35;49.74;99450.34;5120089;27;20042;-70
2021/11/08 09:55:34;;;;;;;12.07;4.60;;;;;;;16.64;49.46;99437.84;5127374;27;20059;-68
2021/11/08 09:58:01;;;;;;;11.88;5.20;;;;;;;15.56;51.73;99447.16;5125616;27;20053;-68
2021/11/08 10:00:48;;;;;;;12.30;4.57;;;;;;;15.54;51.49;99444.66;5116454;27;20027;-68
2021/11/08 10:03:23;;;;;;;10.63;4.55;;;;;;;15.83;51.92;99441.56;5117335;27;20031;-69
2021/11/08 10:05:50;;;;;;;11.98;4.28;;;;;;;15.96;50.94;99452.34;5129122;27;20507;-68
2021/11/08 10:08:19;;;;;;;14.70;4.85;;;;;;;15.68;52.16;99450.84;5126680;27;20042;-70
2021/11/08 10:10:44;;;;;;;11.65;4.57;;;;;;;14.94;53.97;99449.59;5117924;27;20478;-69
2021/11/08 10:13:14;;;;;;;11.75;3.97;;;;;;;15.06;53.95;99439.69;5117676;27;20059;-69
2021/11/08 10:15:42;;;;;;;12.48;4.18;;;;;;;14.80;53.90;99443.38;5127047;27;20023;-69
2021/11/08 10:18:08;;;;;;;16.02;4.53;;;;;;;14.79;55.15;99457.19;5128826;27;20027;-70
2021/11/08 10:20:41;;;;;;;15.75;5.28;;;;;;;14.33;56.82;99452.66;5117401;27;20031;-68
2021/11/08 10:23:07;;;;;;;14.57;4.93;;;;;;;14.65;55.91;99437.34;5120533;27;20030;-69
2021/11/08 10:25:36;;;;;;;15.00;5.03;;;;;;;14.45;55.60;99440.06;5127148;27;20098;-70
2021/11/08 10:28:37;;;;;;;14.73;4.50;;;;;;;13.64;58.69;99451.19;5121805;27;20023;-68
2021/11/08 10:31:10;;;;;;;14.30;4.47;;;;;;;14.00;57.32;99435.31;5061644;28;20032;-69
2021/11/08 10:33:39;;;;;;;15.13;4.40;;;;;;;14.21;56.20;99444.31;5109047;27;20051;-69
2021/11/08 10:36:13;;;;;;;11.60;4.60;;;;;;;13.96;58.03;99441.38;5127030;27;20034;-69
2021/11/08 10:38:41;;;;;;;13.50;4.38;;;;;;;13.68;58.58;99447.03;5122432;27;20027;-69
2021/11/08 10:41:16;;;;;;;10.00;4.07;;;;;;;13.14;59.45;99438.72;5119800;27;20015;-69
2021/11/08 10:44:22;;;;;;;10.57;4.00;;;;;;;13.09;60.76;99440.38;5121433;27;20436;-72
2021/11/08 10:47:09;;;;;;;9.98;3.45;;;;;;;12.90;60.62;99442.81;5052721;28;20039;-68
2021/11/08 10:49:43;;;;;;;6.57;2.78;;;;;;;12.99;59.66;99426.34;5069824;28;20025;-69
2021/11/08 10:52:14;;;;;;;12.75;3.05;;;;;;;13.14;59.26;99418.88;5100709;27;20125;-68
2021/11/08 10:54:43;;;;;;;11.40;2.95;;;;;;;13.21;58.95;99444.19;5113504;27;20054;-69
2021/11/08 10:57:12;;;;;;;14.80;3.20;;;;;;;12.86;59.21;99455.16;5112404;27;20492;-69
2021/11/08 10:59:48;;;;;;;15.45;3.15;;;;;;;12.71;59.16;99444.41;5113528;28;20042;-69
2021/11/08 11:02:16;;;;;;;10.55;3.55;;;;;;;12.68;58.92;99446.69;5116848;27;20062;-69
2021/11/08 11:04:58;;;;;;;9.52;3.35;;;;;;;12.99;60.06;99451.63;5112052;28;20078;-68
2021/11/08 11:07:34;;;;;;;11.73;3.67;;;;;;;13.13;60.21;99442.50;5117636;27;20023;-69
2021/11/08 11:10:03;;;;;;;14.35;3.72;;;;;;;12.75;60.82;99444.84;5116609;27;20057;-69
2021/11/08 11:12:29;;;;;;;13.27;4.53;;;;;;;12.73;61.61;99449.63;5128234;27;20475;-69
2021/11/08 11:14:59;;;;;;;16.98;4.00;;;;;;;12.91;62.57;99451.81;5134391;27;20038;-69
2021/11/08 11:17:37;;;;;;;16.00;5.25;;;;;;;13.09;62.07;99448.53;5113218;27;20485;-69
2021/11/08 11:20:16;;;;;;;15.30;5.18;;;;;;;12.85;63.31;99453.44;5119474;27;20098;-69
2021/11/08 11:22:46;;;;;;;;;;;;;;;12.60;63.94;99453.13;5114597;27;20015;-69
2021/11/08 11:25:14;;;;;;;13.75;4.97;;;;;;;12.54;64.28;99453.91;5113580;28;19915;-69
2021/11/08 11:27:48;;;;;;;13.45;5.20;;;;;;;12.47;63.96;99453.03;5112724;28;20108;-68
2021/11/08 11:30:25;;;;;;;11.23;5.10;;;;;;;12.36;64.09;99450.88;5112404;28;20038;-73
2021/11/08 11:33:18;;;;;;;14.05;5.57;;;;;;;11.92;65.34;99427.63;5114910;28;20019;-73
2021/11/08 11:35:48;;;;;;;8.50;4.63;;;;;;;12.09;65.72;99449.88;5113082;28;20024;-69
2021/11/08 11:38:30;;;;;;;12.50;5.65;;;;;;;12.01;64.92;99438.13;5127527;28;20102;-68
2021/11/08 11:41:00;;;;;;;15.68;5.68;;;;;;;12.09;65.58;99444.44;5120161;27;20027;-69
2021/11/08 11:43:36;;;;;;;16.40;6.22;;;;;;;12.37;64.78;99442.56;5115309;27;20126;-69
2021/11/08 11:46:04;;;;;;;10.45;5.13;;;;;;;12.58;64.80;99435.38;5129138;28;20031;-70
2021/11/08 11:48:32;;;;;;;13.18;4.88;;;;;;;12.65;62.89;99425.38;5120050;27;20032;-69
2021/11/08 11:50:58;;;;;;;11.90;5.07;;;;;;;12.67;63.28;99426.00;5115594;28;20099;-69
2021/11/08 11:53:29;;;;;;;12.75;4.93;;;;;;;13.09;62.66;99426.78;5116448;27;20110;-69
2021/11/08 11:55:55;;;;;;;12.98;4.93;;;;;;;15.53;55.76;99418.41;5123550;28;20027;-69
2021/11/08 11:58:20;;;;;;;14.63;4.50;;;;;;;17.35;50.03;99410.91;5125490;28;20399;-69
2021/11/08 12:00:48;;;;;;;11.07;3.88;;;;;;;19.87;44.62;99406.00;5122842;27;20024;-70
2021/11/08 12:03:14;;;;;;;11.27;4.20;;;;;;;20.60;42.90;99395.03;5127486;27;20098;-69
2021/11/08 12:05:44;;;;;;;7.70;4.07;;;;;;;20.63;41.37;99379.94;5122582;27;20092;-70
2021/11/08 12:08:11;;;;;;;14.98;4.10;;;;;;;21.51;38.93;99391.72;5117336;28;20049;-70
2021/11/08 12:10:55;;;;;;;9.93;3.65;;;;;;;22.00;37.94;99386.03;5127428;28;20400;-71
2021/11/08 12:13:22;;;;;;;8.00;3.95;;;;;;;24.00;34.65;99382.13;5120675;27;20031;-71
2021/11/08 12:15:51;;;;;;;8.32;3.92;;;;;;;22.53;35.51;99386.13;5110646;27;20042;-71
2021/11/08 12:18:19;;;;;;;9.70;3.50;;;;;;;22.08;38.55;99382.78;5108676;28;20404;-70
2021/11/08 12:20:53;;;;;;;11.45;3.78;;;;;;;20.58;40.19;99388.97;5112421;27;20031;-70
2021/11/08 12:23:23;;;;;;;11.20;4.20;;;;;;;19.37;42.60;99394.94;5109205;28;20068;-70
2021/11/08 12:25:50;;;;;;;12.40;3.58;;;;;;;20.77;39.69;99386.72;5109226;28;20027;-70
2021/11/08 12:28:27;;;;;;;9.75;4.10;;;;;;;21.76;38.01;99382.00;5123499;28;20038;-70
2021/11/08 12:31:00;;;;;;;11.95;4.10;;;;;;;22.38;36.44;99377.81;5113966;27;20099;-70
2021/11/08 12:33:28;;;;;;;7.60;3.80;;;;;;;22.86;36.14;99381.34;5115694;27;20031;-70
2021/11/08 12:36:05;;;;;;;11.27;3.75;;;;;;;22.52;37.05;99382.56;5117175;27;20397;-70
2021/11/08 12:38:34;;;;;;;8.75;3.65;;;;;;;23.32;35.12;99373.22;5110148;28;20023;-70
2021/11/08 12:41:09;;;;;;;9.15;3.30;;;;;;;23.05;35.36;99376.19;5113083;27;20050;-69
2021/11/08 12:43:35;;;;;;;8.93;3.05;;;;;;;23.69;35.00;99375.75;5127452;27;20058;-70
2021/11/08 12:46:09;;;;;;;12.70;3.63;;;;;;;22.08;35.48;99379.22;5130483;27;20055;-70
2021/11/08 12:48:37;;;;;;;7.63;3.38;;;;;;;23.23;34.56;99372.91;5112616;27;20039;-69
2021/11/08 12:51:03;;;;;;;9.47;3.63;;;;;;;24.13;33.69;99368.84;5128937;27;20052;-69
2021/11/08 12:53:36;;;;;;;9.57;3.35;;;;;;;23.57;33.56;99364.13;5119609;27;20038;-70
2021/11/08 12:56:08;;;;;;;9.15;3.35;;;;;;;23.18;34.37;99359.09;5115418;27;20633;-70
2021/11/08 12:58:46;;;;;;;8.65;3.35;;;;;;;23.51;33.82;99356.97;5121106;27;20376;-69
2021/11/08 13:01:19;;;;;;;8.07;2.90;;;;;;;24.11;32.41;99355.31;5116437;27;20439;-70
2021/11/08 13:03:46;;;;;;;9.85;2.50;;;;;;;24.44;32.13;99342.81;5112513;27;20103;-70
2021/11/08 13:06:27;;;;;;;8.85;2.72;;;;;;;23.60;32.17;99364.41;5121151;27;20746;-69
2021/11/08 13:09:06;;;;;;;5.70;2.50;;;;;;;23.91;31.04;99372.72;5127055;27;20023;-70
2021/11/08 13:11:45;;;;;;;8.57;2.58;;;;;;;23.49;31.77;99361.91;5116334;27;20035;-70
2021/11/08 13:14:22;;;;;;;6.57;2.25;;;;;;;23.07;32.79;99366.53;5112721;27;21689;-69
2021/11/08 13:16:51;;;;;;;8.02;2.63;;;;;;;22.34;33.21;99377.50;5112416;28;20038;-70
2021/11/08 13:19:18;;;;;;;6.93;2.30;;;;;;;23.40;31.93;99373.50;5112912;27;20023;-70